Time;durP1;ratioP1;P1;durP2;ratioP2;P2;SDS_P1;SDS_P2;PMS_P1;PMS_P2;Temp;Humidity;BMP_temperature;BMP_pressure;BME280_temperature;BME280_humidity;BME280_pressure;Samples;Min_cycle;Max_cycle;Signal;HPM_P1;HPM_P2
2021/01/05 00:00:16;;;;;;;19.58;14.75;;;;;;;1.58;85.90;100141.09;5058545;28;20072;-68
2021/01/05 00:02:42;;;;;;;17.88;13.57;;;;;;;1.60;86.09;100141.06;5058621;28;20067;-68
2021/01/05 00:05:09;;;;;;;18.98;14.43;;;;;;;1.58;86.19;100141.09;5058504;28;20053;-69
2021/01/05 00:07:35;;;;;;;17.50;13.73;;;;;;;1.59;85.84;100140.19;5058056;28;20453;-70
2021/01/05 00:10:03;;;;;;;19.70;15.13;;;;;;;1.57;86.17;100138.53;5058143;28;20100;-69
2021/01/05 00:12:30;;;;;;;20.25;14.98;;;;;;;1.60;86.31;100135.81;5058295;28;20053;-69
2021/01/05 00:14:56;;;;;;;19.38;14.65;;;;;;;1.60;86.24;100139.31;5057858;28;20052;-70
2021/01/05 00:17:22;;;;;;;19.98;14.30;;;;;;;1.62;85.95;100148.03;5058285;28;20049;-69
2021/01/05 00:19:49;;;;;;;17.90;14.40;;;;;;;1.62;86.09;100147.16;5057892;28;20045;-70
2021/01/05 00:22:16;;;;;;;23.02;15.07;;;;;;;1.61;85.84;100156.84;5057805;28;20053;-69
2021/01/05 00:24:42;;;;;;;18.92;14.95;;;;;;;1.56;86.32;100149.94;5057745;28;20079;-69
2021/01/05 00:27:10;;;;;;;18.80;14.93;;;;;;;1.60;86.41;100143.72;5057457;28;20095;-69
2021/01/05 00:29:36;;;;;;;19.73;15.43;;;;;;;1.53;86.42;100136.88;5058241;28;20045;-69
2021/01/05 00:32:12;;;;;;;21.95;15.52;;;;;;;1.56;86.53;100144.69;5057957;28;20048;-69
2021/01/05 00:34:39;;;;;;;21.45;16.13;;;;;;;1.61;86.63;100140.16;5058010;28;20057;-69
2021/01/05 00:37:06;;;;;;;19.75;16.10;;;;;;;1.63;86.40;100148.88;5057923;28;20052;-69
2021/01/05 00:39:32;;;;;;;19.15;15.23;;;;;;;1.61;86.81;100137.53;5057690;28;20057;-69
2021/01/05 00:41:58;;;;;;;20.15;16.05;;;;;;;1.57;86.54;100138.53;5057895;28;20327;-69
2021/01/05 00:44:25;;;;;;;22.98;17.50;;;;;;;1.54;86.57;100141.22;5056432;28;20130;-69
2021/01/05 00:46:52;;;;;;;26.05;16.52;;;;;;;1.60;86.54;100139.31;5057098;28;20056;-69
2021/01/05 00:49:18;;;;;;;21.77;16.08;;;;;;;1.54;86.48;100138.59;5057265;28;20053;-69
2021/01/05 00:51:44;;;;;;;23.20;16.23;;;;;;;1.60;86.53;100147.22;5057339;28;20377;-70
2021/01/05 00:54:10;;;;;;;19.95;16.00;;;;;;;1.62;86.21;100148.03;5057301;28;20048;-69
2021/01/05 00:56:36;;;;;;;23.15;16.27;;;;;;;1.66;86.58;100150.59;5057449;28;20053;-70
2021/01/05 00:59:04;;;;;;;23.33;16.92;;;;;;;1.61;86.47;100145.44;5057250;28;20191;-69
2021/01/05 01:01:30;;;;;;;22.33;17.17;;;;;;;1.68;86.02;100148.81;5039702;28;20095;-71
2021/01/05 01:03:57;;;;;;;24.73;17.77;;;;;;;1.67;86.13;100150.56;5039476;28;20052;-69
2021/01/05 01:06:24;;;;;;;21.13;16.70;;;;;;;1.70;86.08;100153.09;5057223;28;20049;-70
2021/01/05 01:08:50;;;;;;;20.25;16.17;;;;;;;1.61;85.57;100148.06;5057075;28;20099;-70
2021/01/05 01:11:20;;;;;;;20.38;15.80;;;;;;;1.66;85.76;100158.47;5057568;28;20127;-70
2021/01/05 01:13:46;;;;;;;20.52;16.25;;;;;;;1.57;86.36;100149.06;5057101;28;20049;-69
2021/01/05 01:16:13;;;;;;;23.50;17.20;;;;;;;1.51;86.23;100149.19;5056985;28;20053;-70
2021/01/05 01:18:40;;;;;;;22.00;16.88;;;;;;;1.43;86.76;100154.63;5056802;28;20053;-70
2021/01/05 01:21:06;;;;;;;20.65;15.88;;;;;;;1.54;86.45;100152.63;5039103;28;20090;-70
2021/01/05 01:23:33;;;;;;;21.73;15.50;;;;;;;1.55;86.19;100158.72;5038848;28;20064;-70
2021/01/05 01:25:59;;;;;;;21.77;16.70;;;;;;;1.53;86.40;100155.28;5038972;28;20053;-70
2021/01/05 01:28:27;;;;;;;21.77;16.95;;;;;;;1.49;86.29;100159.75;5056636;28;20045;-69
2021/01/05 01:30:53;;;;;;;23.08;16.75;;;;;;;1.45;86.86;100158.09;5056584;28;20117;-70
2021/01/05 01:33:19;;;;;;;21.85;16.60;;;;;;;1.29;86.45;100140.03;5056363;28;20057;-70
2021/01/05 01:35:46;;;;;;;22.13;16.50;;;;;;;1.46;86.71;100162.44;5056862;28;20087;-70
2021/01/05 01:38:12;;;;;;;22.67;16.55;;;;;;;1.43;86.96;100162.53;5038886;28;20126;-69
2021/01/05 01:40:41;;;;;;;21.67;16.35;;;;;;;1.35;86.48;100153.06;5055566;28;20045;-69
2021/01/05 01:43:08;;;;;;;22.63;16.70;;;;;;;1.44;86.34;100159.00;5056338;28;20045;-70
2021/01/05 01:45:34;;;;;;;21.33;16.00;;;;;;;1.51;86.35;100159.72;5056422;28;20059;-70
2021/01/05 01:48:08;;;;;;;21.77;16.25;;;;;;;1.49;86.69;100160.59;5056340;28;20053;-70
2021/01/05 01:50:35;;;;;;;22.92;16.02;;;;;;;1.54;86.59;100159.63;5056075;28;20094;-70
2021/01/05 01:53:28;;;;;;;23.85;16.98;;;;;;;1.52;86.51;100151.78;5056196;28;20064;-69
2021/01/05 01:56:07;;;;;;;22.60;16.00;;;;;;;1.54;86.25;100154.38;5056260;28;20056;-70
2021/01/05 01:59:10;;;;;;;21.27;16.15;;;;;;;1.52;86.15;100159.66;5055392;28;20107;-70
2021/01/05 02:01:56;;;;;;;21.02;15.48;;;;;;;1.59;86.06;100165.66;5038380;28;20049;-69
2021/01/05 02:04:41;;;;;;;21.60;16.02;;;;;;;1.49;86.13;100159.75;5038900;28;20049;-69
2021/01/05 02:07:13;;;;;;;20.98;15.32;;;;;;;1.42;86.51;100156.38;5056763;28;20052;-68
2021/01/05 02:10:06;;;;;;;21.95;16.55;;;;;;;1.34;85.99;100132.03;5039106;28;20049;-70
2021/01/05 02:12:59;;;;;;;21.15;15.40;;;;;;;1.58;86.18;100158.69;5056345;28;20119;-68
2021/01/05 02:16:10;;;;;;;21.40;16.75;;;;;;;1.47;86.38;100164.19;5056128;28;20426;-68
2021/01/05 02:18:55;;;;;;;22.23;16.90;;;;;;;1.44;86.52;100149.34;5054155;28;20132;-68
2021/01/05 02:21:30;;;;;;;21.98;16.10;;;;;;;1.46;86.46;100142.28;5056192;28;20053;-70
2021/01/05 02:24:20;;;;;;;22.23;16.17;;;;;;;1.51;86.40;100154.47;5055708;28;20045;-69
2021/01/05 02:27:11;;;;;;;21.15;15.98;;;;;;;1.49;86.14;100154.50;5055524;28;20477;-69
2021/01/05 02:29:54;;;;;;;21.25;16.08;;;;;;;1.45;86.58;100158.09;5055917;28;20053;-71
2021/01/05 02:32:52;;;;;;;23.55;16.75;;;;;;;1.47;87.02;100156.31;5055502;28;20061;-69
2021/01/05 02:35:36;;;;;;;23.13;16.70;;;;;;;1.54;86.67;100154.38;5055718;28;20048;-70
2021/01/05 02:38:36;;;;;;;23.45;16.70;;;;;;;1.52;86.91;100150.94;5055691;28;20060;-69
2021/01/05 02:41:27;;;;;;;24.23;17.20;;;;;;;1.51;86.88;100157.09;5055226;28;20041;-69
2021/01/05 02:44:24;;;;;;;23.63;17.40;;;;;;;1.53;86.49;100147.41;5037829;28;20052;-69
2021/01/05 02:46:55;;;;;;;26.80;17.15;;;;;;;1.53;86.91;100147.41;5054909;28;20049;-69
2021/01/05 02:49:40;;;;;;;21.83;16.35;;;;;;;1.51;86.52;100146.56;5055305;28;20075;-69
2021/01/05 02:52:27;;;;;;;22.80;16.88;;;;;;;1.61;86.41;100148.06;5055171;28;20107;-71
2021/01/05 02:55:24;;;;;;;21.88;16.42;;;;;;;1.49;86.54;100133.44;5055035;28;20178;-71
2021/01/05 02:58:09;;;;;;;22.73;16.55;;;;;;;1.59;86.15;100149.88;5055276;28;20045;-69
2021/01/05 03:00:42;;;;;;;24.10;17.33;;;;;;;1.58;86.35;100140.25;5054878;28;20051;-69
2021/01/05 03:03:27;;;;;;;21.98;16.42;;;;;;;1.53;86.42;100137.72;5055264;28;20071;-69
2021/01/05 03:06:24;;;;;;;24.00;17.92;;;;;;;1.54;86.93;100149.13;5054845;28;20049;-69
2021/01/05 03:08:53;;;;;;;21.85;15.90;;;;;;;1.59;86.45;100142.84;5054705;28;20045;-69
2021/01/05 03:11:33;;;;;;;24.65;17.70;;;;;;;1.51;86.88;100144.78;5054883;28;20056;-70
2021/01/05 03:14:05;;;;;;;24.65;18.58;;;;;;;1.53;87.20;100147.41;5054681;28;20449;-69
2021/01/05 03:16:36;;;;;;;23.67;17.20;;;;;;;1.52;86.80;100148.31;5054011;28;20438;-69
2021/01/05 03:19:11;;;;;;;25.90;18.75;;;;;;;1.53;86.94;100152.66;5055073;28;20111;-68
2021/01/05 03:21:43;;;;;;;24.15;16.92;;;;;;;1.51;87.26;100152.69;5054722;28;20045;-69
2021/01/05 03:24:10;;;;;;;24.10;18.00;;;;;;;1.61;86.83;100137.53;5054893;28;20126;-69
2021/01/05 03:26:43;;;;;;;26.05;18.70;;;;;;;1.55;86.60;100121.91;5036834;28;20107;-69
2021/01/05 03:29:12;;;;;;;25.65;17.95;;;;;;;1.59;86.68;100131.47;5054820;28;20060;-69
2021/01/05 03:31:55;;;;;;;24.00;17.45;;;;;;;1.67;86.29;100142.66;5037067;28;20498;-69
2021/01/05 03:34:21;;;;;;;26.20;18.30;;;;;;;1.60;86.69;100136.69;5054852;28;20106;-69
2021/01/05 03:36:48;;;;;;;23.00;17.48;;;;;;;1.59;86.13;100120.94;5054521;28;20111;-69
2021/01/05 03:39:18;;;;;;;24.98;19.17;;;;;;;1.68;86.36;100140.91;5054948;28;20449;-69
2021/01/05 03:41:44;;;;;;;25.88;18.48;;;;;;;1.65;86.56;100139.22;5054439;28;20046;-69
2021/01/05 03:44:11;;;;;;;25.83;19.27;;;;;;;1.63;86.83;100141.00;5054709;28;20049;-69
2021/01/05 03:46:37;;;;;;;28.00;19.45;;;;;;;1.63;86.75;100138.38;5054503;28;20045;-69
2021/01/05 03:49:03;;;;;;;25.17;18.20;;;;;;;1.55;87.15;100141.19;5054532;28;20053;-69
2021/01/05 03:51:30;;;;;;;25.80;19.10;;;;;;;1.63;86.94;100141.88;5037233;28;20053;-69
2021/01/05 03:53:56;;;;;;;27.25;19.42;;;;;;;1.55;86.61;100141.19;5054731;28;20060;-69
2021/01/05 03:56:22;;;;;;;27.92;19.95;;;;;;;1.57;87.01;100146.44;5054286;28;20053;-69
2021/01/05 03:58:48;;;;;;;28.13;19.80;;;;;;;1.31;86.84;100100.56;5054487;28;20053;-68
2021/01/05 04:01:14;;;;;;;27.02;18.85;;;;;;;1.55;87.03;100135.06;5054296;28;20049;-68
2021/01/05 04:03:41;;;;;;;30.58;21.02;;;;;;;1.49;86.99;100131.66;5054677;28;20048;-70
2021/01/05 04:06:08;;;;;;;29.98;20.60;;;;;;;1.58;86.67;100141.09;5054215;28;20411;-69
2021/01/05 04:08:34;;;;;;;30.35;18.98;;;;;;;1.55;86.68;100142.94;5054233;28;20107;-69
2021/01/05 04:11:00;;;;;;;27.52;19.50;;;;;;;1.54;86.99;100143.84;5054497;28;20110;-69
2021/01/05 04:13:26;;;;;;;26.65;18.17;;;;;;;1.66;86.73;100147.94;5054223;28;20495;-69
2021/01/05 04:15:52;;;;;;;30.17;20.50;;;;;;;1.59;86.55;100139.34;5054439;28;20056;-68
2021/01/05 04:18:19;;;;;;;29.05;20.02;;;;;;;1.57;86.42;100133.28;5054198;28;20053;-68
2021/01/05 04:20:45;;;;;;;29.52;19.38;;;;;;;1.53;86.82;100142.13;5054567;28;20083;-69
2021/01/05 04:23:12;;;;;;;28.63;20.05;;;;;;;1.49;86.81;100123.78;5058150;28;20111;-70
2021/01/05 04:25:38;;;;;;;30.45;19.00;;;;;;;1.54;86.86;100141.22;5057545;28;20061;-69
2021/01/05 04:28:04;;;;;;;28.20;19.95;;;;;;;1.40;87.11;100131.00;5058014;28;20056;-71
2021/01/05 04:30:32;;;;;;;29.30;19.33;;;;;;;1.56;86.78;100147.31;5057788;28;20049;-70
2021/01/05 04:33:01;;;;;;;28.35;19.98;;;;;;;1.37;87.08;100129.34;5057847;28;20117;-68
2021/01/05 04:35:28;;;;;;;30.42;20.90;;;;;;;1.46;87.20;100149.28;5057813;28;20110;-69
2021/01/05 04:37:55;;;;;;;28.70;19.00;;;;;;;1.49;86.67;100147.44;5057523;28;20055;-69
2021/01/05 04:40:42;;;;;;;28.88;19.23;;;;;;;1.45;87.27;100151.06;5057944;28;20095;-69
2021/01/05 04:43:14;;;;;;;30.95;19.58;;;;;;;1.55;87.06;100150.84;5039970;28;20053;-69
2021/01/05 04:45:58;;;;;;;28.83;19.48;;;;;;;1.56;86.98;100148.19;5056506;28;20114;-68
2021/01/05 04:48:36;;;;;;;26.52;18.73;;;;;;;1.63;86.61;100149.75;5057623;28;20136;-68
2021/01/05 04:51:25;;;;;;;29.60;18.77;;;;;;;1.57;86.50;100144.66;5057265;28;20106;-69
2021/01/05 04:53:59;;;;;;;29.05;19.27;;;;;;;1.58;86.91;100145.53;5039599;28;20115;-69
2021/01/05 04:57:09;;;;;;;30.40;19.20;;;;;;;1.62;86.72;100142.78;5057137;28;20053;-69
2021/01/05 04:59:57;;;;;;;28.73;19.35;;;;;;;1.55;86.88;100151.72;5043338;28;20052;-70
2021/01/05 05:02:49;;;;;;;27.40;18.90;;;;;;;1.61;86.54;100148.94;5057066;28;20048;-69
2021/01/05 05:05:23;;;;;;;;;;;;;;;1.71;86.19;100153.97;5057775;28;20061;-69
2021/01/05 05:08:08;;;;;;;23.73;16.88;;;;;;;1.74;85.87;100151.28;5056970;28;19925;-69
2021/01/05 05:10:47;;;;;;;26.67;18.48;;;;;;;1.66;86.17;100159.34;5057007;28;20049;-70
2021/01/05 05:13:33;;;;;;;28.75;18.73;;;;;;;1.63;86.39;100156.78;5056792;28;20065;-69
2021/01/05 05:16:32;;;;;;;29.17;19.35;;;;;;;1.57;86.44;100159.59;5057014;28;20357;-69
2021/01/05 05:19:31;;;;;;;28.13;18.80;;;;;;;1.59;86.81;100160.41;5057087;28;20110;-70
2021/01/05 05:22:08;;;;;;;26.60;18.48;;;;;;;1.59;86.47;100163.88;5056594;28;20359;-69
2021/01/05 05:24:48;;;;;;;26.90;18.50;;;;;;;1.56;86.59;100155.19;5056667;28;20059;-69
2021/01/05 05:27:39;;;;;;;26.07;17.80;;;;;;;1.66;86.24;100167.25;5056589;28;20053;-70
2021/01/05 05:30:11;;;;;;;26.55;19.05;;;;;;;1.56;85.79;100163.97;5039237;28;20061;-70
2021/01/05 05:32:47;;;;;;;28.15;18.50;;;;;;;1.59;86.42;100168.28;5056443;28;20449;-69
2021/01/05 05:35:47;;;;;;;31.27;19.02;;;;;;;1.60;86.15;100170.03;5056688;28;20382;-70
2021/01/05 05:38:58;;;;;;;25.73;17.40;;;;;;;1.58;86.15;100167.41;5056305;28;20102;-70
2021/01/05 05:41:32;;;;;;;25.55;17.67;;;;;;;1.65;86.06;100167.28;5053548;28;20060;-70
2021/01/05 05:44:22;;;;;;;28.50;18.50;;;;;;;1.57;86.66;100172.75;5056352;28;20049;-69
2021/01/05 05:46:56;;;;;;;27.25;18.92;;;;;;;1.52;86.48;100166.72;5056069;28;20103;-69
2021/01/05 05:49:35;;;;;;;30.80;18.92;;;;;;;1.61;85.98;100161.22;5056239;28;20442;-70
2021/01/05 05:52:04;;;;;;;26.83;17.70;;;;;;;1.53;85.92;100166.66;5056034;28;20052;-70
2021/01/05 05:54:33;;;;;;;27.60;18.73;;;;;;;1.46;86.61;100176.47;5056390;28;20056;-69
2021/01/05 05:57:18;;;;;;;27.08;17.70;;;;;;;1.63;86.25;100176.06;5055923;28;20491;-69
2021/01/05 05:59:50;;;;;;;27.92;18.98;;;;;;;1.61;86.37;100187.53;5056038;28;20052;-69
2021/01/05 06:02:21;;;;;;;27.23;18.20;;;;;;;1.60;86.47;100196.31;5055716;28;20072;-70
2021/01/05 06:04:48;;;;;;;27.90;18.52;;;;;;;1.67;86.04;100187.38;5055990;28;20426;-69
2021/01/05 06:07:14;;;;;;;26.45;18.23;;;;;;;1.66;86.07;100182.16;5055829;28;20052;-69
2021/01/05 06:09:40;;;;;;;26.15;18.42;;;;;;;1.69;86.24;100185.56;5056042;28;20053;-70
2021/01/05 06:12:07;;;;;;;26.75;17.45;;;;;;;1.62;86.29;100192.75;5055651;28;20754;-70
2021/01/05 06:14:33;;;;;;;28.52;18.40;;;;;;;1.66;85.99;100188.28;5055540;28;20049;-70
2021/01/05 06:16:59;;;;;;;29.08;18.98;;;;;;;1.59;86.21;100191.97;5055954;28;20103;-74
2021/01/05 06:19:26;;;;;;;25.60;17.30;;;;;;;1.54;86.33;100185.94;5055422;28;20115;-77
2021/01/05 06:21:52;;;;;;;25.20;17.42;;;;;;;1.56;86.43;100192.03;5055930;28;20053;-70
2021/01/05 06:24:18;;;;;;;26.20;17.27;;;;;;;1.55;86.57;100187.66;5055711;28;20053;-69
2021/01/05 06:26:44;;;;;;;25.25;17.23;;;;;;;1.51;86.52;100193.91;5050184;28;20166;-72
2021/01/05 06:29:10;;;;;;;24.98;17.50;;;;;;;1.59;86.30;100194.59;5054878;28;20045;-70
2021/01/05 06:31:37;;;;;;;26.88;18.33;;;;;;;1.52;86.78;100187.75;5022635;28;20449;-69
2021/01/05 06:34:03;;;;;;;24.23;16.67;;;;;;;1.63;86.18;100198.88;5034668;28;20057;-70
2021/01/05 06:36:29;;;;;;;27.48;18.73;;;;;;;1.55;86.21;100196.44;5057279;28;20053;-71
2021/01/05 06:38:56;;;;;;;28.10;18.08;;;;;;;1.65;86.20;100196.22;5054432;28;20098;-67
2021/01/05 06:41:24;;;;;;;24.98;17.52;;;;;;;1.62;86.02;100192.75;5053984;28;20056;-69
2021/01/05 06:43:50;;;;;;;30.38;17.60;;;;;;;1.71;85.82;100194.31;5056813;28;20049;-72
2021/01/05 06:46:16;;;;;;;26.65;17.63;;;;;;;1.60;85.93;100196.31;5054860;28;20087;-73
2021/01/05 06:48:43;;;;;;;24.73;17.10;;;;;;;1.60;86.12;100197.22;5055736;28;20048;-68
2021/01/05 06:51:10;;;;;;;25.52;17.98;;;;;;;1.56;86.45;100194.66;5038139;28;20045;-69
2021/01/05 06:53:36;;;;;;;25.80;17.25;;;;;;;1.49;86.39;100189.53;5054379;28;20045;-70
2021/01/05 06:56:02;;;;;;;29.15;18.65;;;;;;;1.56;86.44;100189.41;5054520;28;20504;-75
2021/01/05 06:58:30;;;;;;;23.70;16.52;;;;;;;1.53;86.07;100182.44;5054829;28;20426;-70
2021/01/05 07:00:56;;;;;;;26.52;17.13;;;;;;;1.69;85.85;100192.63;5054233;28;20048;-69
2021/01/05 07:03:22;;;;;;;27.75;17.42;;;;;;;1.63;85.89;100196.25;5054916;28;20460;-76
2021/01/05 07:05:48;;;;;;;27.17;17.45;;;;;;;1.65;85.84;100194.47;5054329;28;20053;-75
2021/01/05 07:08:15;;;;;;;23.38;16.58;;;;;;;1.59;86.45;100199.88;5054053;28;20484;-78
2021/01/05 07:10:43;;;;;;;27.38;17.48;;;;;;;1.57;86.09;100201.69;5036105;28;20049;-76
2021/01/05 07:13:09;;;;;;;25.63;16.73;;;;;;;1.61;86.10;100201.56;5053667;28;20385;-73
2021/01/05 07:15:35;;;;;;;25.20;17.50;;;;;;;1.57;86.12;100201.69;5053520;28;20051;-72
2021/01/05 07:18:01;;;;;;;27.85;17.60;;;;;;;1.57;86.41;100207.78;5036782;28;20381;-72
2021/01/05 07:20:41;;;;;;;25.42;16.73;;;;;;;1.58;86.05;100211.28;5054317;28;20048;-72
2021/01/05 07:23:07;;;;;;;28.20;18.35;;;;;;;1.59;86.27;100210.38;5054206;28;20094;-74
2021/01/05 07:25:33;;;;;;;28.55;17.15;;;;;;;1.62;85.87;100211.19;5054180;28;20389;-72
2021/01/05 07:27:59;;;;;;;26.98;16.80;;;;;;;1.63;85.63;100207.66;5054287;28;20053;-73
2021/01/05 07:30:26;;;;;;;29.33;18.27;;;;;;;1.52;85.95;100207.00;5053513;28;20431;-71
2021/01/05 07:32:52;;;;;;;25.73;16.83;;;;;;;1.59;85.98;100215.66;5050502;28;20060;-71
2021/01/05 07:35:18;;;;;;;27.60;17.83;;;;;;;1.52;86.10;100208.81;5050266;28;20103;-71
2021/01/05 07:37:44;;;;;;;27.80;18.40;;;;;;;1.56;86.28;100219.22;5053723;28;20045;-72
2021/01/05 07:40:13;;;;;;;26.40;17.40;;;;;;;1.60;86.49;100223.50;5053485;28;20053;-71
2021/01/05 07:42:39;;;;;;;27.92;18.63;;;;;;;1.66;86.28;100225.13;5053413;28;20052;-72
2021/01/05 07:45:09;;;;;;;26.73;17.83;;;;;;;1.61;86.18;100225.25;5054418;28;20045;-73
2021/01/05 07:47:38;;;;;;;19.40;12.23;;;;;;;1.66;85.72;100219.00;5054986;28;20103;-72
2021/01/05 07:50:06;;;;;;;26.38;17.58;;;;;;;1.65;85.79;100228.66;5052788;28;20339;-72
2021/01/05 07:52:38;;;;;;;27.48;17.42;;;;;;;1.68;85.90;100230.38;5054372;28;20434;-70
2021/01/05 07:55:19;;;;;;;26.23;17.40;;;;;;;1.66;85.99;100233.03;5054452;28;20121;-71
2021/01/05 07:57:46;;;;;;;24.92;16.35;;;;;;;1.70;86.05;100228.56;5058014;28;20052;-72
2021/01/05 08:00:16;;;;;;;27.15;17.70;;;;;;;1.71;85.73;100228.53;5058027;28;20467;-71
2021/01/05 08:02:42;;;;;;;26.42;17.60;;;;;;;1.72;85.83;100227.63;5058790;28;20123;-72
2021/01/05 08:05:14;;;;;;;25.77;16.98;;;;;;;1.69;85.51;100216.31;5040834;28;20052;-71
2021/01/05 08:07:40;;;;;;;28.33;17.40;;;;;;;1.80;85.75;100232.69;5058121;28;20439;-71
2021/01/05 08:10:08;;;;;;;29.13;18.77;;;;;;;1.83;85.76;100234.38;5058125;28;20060;-75
2021/01/05 08:12:34;;;;;;;27.33;18.55;;;;;;;1.80;85.58;100237.09;5058206;28;20106;-75
2021/01/05 08:15:02;;;;;;;26.05;17.08;;;;;;;1.90;84.76;100236.84;5058017;28;20053;-71
2021/01/05 08:17:28;;;;;;;25.55;17.55;;;;;;;1.84;85.66;100237.00;5058262;28;20136;-71
2021/01/05 08:19:54;;;;;;;26.98;16.83;;;;;;;1.85;85.76;100243.97;5057587;28;20049;-73
2021/01/05 08:22:20;;;;;;;28.08;17.17;;;;;;;1.75;85.54;100218.78;5067872;28;20453;-76
2021/01/05 08:24:46;;;;;;;26.23;17.40;;;;;;;1.74;85.24;100233.69;5049609;28;20052;-71
2021/01/05 08:27:14;;;;;;;30.15;17.90;;;;;;;1.74;85.44;100219.69;5057742;28;20056;-77
2021/01/05 08:29:42;;;;;;;26.00;17.80;;;;;;;1.73;85.47;100234.63;5058125;28;20060;-69
2021/01/05 08:32:08;;;;;;;26.80;17.70;;;;;;;1.69;85.71;100232.94;5060487;28;20052;-72
2021/01/05 08:34:34;;;;;;;30.23;19.17;;;;;;;1.81;85.56;100236.19;5059623;28;20131;-75
2021/01/05 08:37:01;;;;;;;25.75;18.13;;;;;;;1.79;85.67;100235.38;5077556;28;20398;-70
2021/01/05 08:39:28;;;;;;;27.02;17.05;;;;;;;1.78;85.08;100244.19;5077818;28;20080;-74
2021/01/05 08:41:56;;;;;;;30.02;18.25;;;;;;;1.79;85.49;100240.63;5077678;28;20071;-75
2021/01/05 08:44:24;;;;;;;27.50;18.15;;;;;;;1.74;85.50;100243.38;5076752;28;20082;-72
2021/01/05 08:46:50;;;;;;;28.48;17.77;;;;;;;1.78;85.31;100241.53;5076770;28;20502;-71
2021/01/05 08:49:16;;;;;;;32.88;18.27;;;;;;;1.78;85.89;100247.66;5059548;28;20053;-73
2021/01/05 08:51:43;;;;;;;30.67;18.30;;;;;;;1.85;85.63;100249.25;5064684;28;20048;-74
2021/01/05 08:54:10;;;;;;;27.23;17.98;;;;;;;1.81;85.47;100244.09;5058682;28;20048;-71
2021/01/05 08:56:40;;;;;;;29.00;18.20;;;;;;;1.90;85.78;100249.13;5060070;28;20057;-71
2021/01/05 08:59:07;;;;;;;29.40;18.58;;;;;;;1.96;85.53;100251.63;5039590;28;20139;-69
2021/01/05 09:01:33;;;;;;;26.65;17.35;;;;;;;2.00;85.44;100245.38;5039559;28;20094;-69
2021/01/05 09:03:59;;;;;;;28.38;18.02;;;;;;;2.06;85.25;100241.72;5057085;28;20098;-71
2021/01/05 09:06:25;;;;;;;27.50;18.13;;;;;;;2.00;85.06;100226.09;5056952;28;20362;-70
2021/01/05 09:08:54;;;;;;;30.83;19.27;;;;;;;2.19;84.84;100257.22;5057881;28;20053;-70
2021/01/05 09:11:24;;;;;;;28.65;18.23;;;;;;;2.20;84.76;100251.94;5056817;28;20124;-72
2021/01/05 09:13:50;;;;;;;29.25;18.60;;;;;;;2.15;84.93;100251.19;5058554;28;20053;-71
2021/01/05 09:16:26;;;;;;;29.27;19.20;;;;;;;2.13;84.67;100263.53;5061655;28;20135;-69
2021/01/05 09:18:53;;;;;;;28.25;19.10;;;;;;;2.11;84.86;100260.03;5061995;28;20355;-70
2021/01/05 09:21:24;;;;;;;28.33;19.17;;;;;;;2.12;84.94;100259.16;5039304;28;20095;-70
2021/01/05 09:23:52;;;;;;;28.73;18.40;;;;;;;2.17;84.69;100254.63;5051602;28;20044;-70
2021/01/05 09:26:24;;;;;;;32.17;20.17;;;;;;;2.22;84.98;100265.06;5050519;28;20129;-73
2021/01/05 09:28:51;;;;;;;30.13;18.48;;;;;;;2.23;84.43;100259.75;5054521;28;20098;-74
2021/01/05 09:31:18;;;;;;;30.40;18.92;;;;;;;2.23;84.92;100264.16;5054840;28;20055;-74
2021/01/05 09:33:45;;;;;;;33.03;20.05;;;;;;;2.16;84.71;100258.16;5065478;28;20053;-73
2021/01/05 09:36:12;;;;;;;33.22;19.40;;;;;;;2.26;84.33;100258.81;5040978;28;20067;-72
2021/01/05 09:38:39;;;;;;;28.98;18.30;;;;;;;2.22;84.56;100263.28;5056915;28;20052;-73
2021/01/05 09:41:18;;;;;;;31.02;19.00;;;;;;;2.23;84.77;100261.53;5054967;28;20320;-76
2021/01/05 09:43:44;;;;;;;34.22;19.77;;;;;;;2.24;84.85;100258.84;5056065;28;20060;-70
2021/01/05 09:46:12;;;;;;;30.17;18.55;;;;;;;2.25;84.85;100257.97;5057018;28;20049;-74
2021/01/05 09:48:38;;;;;;;32.92;19.77;;;;;;;2.26;84.56;100262.31;5055580;28;20057;-75
2021/01/05 09:51:05;;;;;;;31.35;19.55;;;;;;;2.31;84.63;100264.84;5055825;28;20037;-75
2021/01/05 09:53:31;;;;;;;34.95;19.45;;;;;;;2.25;84.33;100263.22;5056219;28;20438;-75
2021/01/05 09:55:57;;;;;;;35.63;19.73;;;;;;;2.14;84.34;100239.75;5055738;28;20056;-75
2021/01/05 09:58:25;;;;;;;32.13;18.48;;;;;;;2.29;84.32;100249.06;5054761;28;20059;-73
2021/01/05 10:00:51;;;;;;;31.65;19.05;;;;;;;2.27;84.47;100258.78;5053233;28;20076;-72
2021/01/05 10:03:17;;;;;;;30.98;18.92;;;;;;;2.33;84.70;100262.16;5055304;28;20048;-73
2021/01/05 10:05:43;;;;;;;36.38;19.65;;;;;;;2.31;84.42;100241.13;5059480;28;20106;-76
2021/01/05 10:08:10;;;;;;;30.40;18.60;;;;;;;2.37;84.25;100262.03;5053964;28;20097;-72
2021/01/05 10:10:36;;;;;;;33.45;19.95;;;;;;;2.35;84.03;100255.09;5053499;28;20045;-75
2021/01/05 10:13:02;;;;;;;30.55;17.83;;;;;;;2.25;84.24;100251.81;5034595;28;20065;-73
2021/01/05 10:15:28;;;;;;;36.05;19.98;;;;;;;2.24;84.52;100261.47;5055530;28;20049;-73
2021/01/05 10:17:54;;;;;;;30.83;18.83;;;;;;;2.24;84.34;100265.88;5055017;28;20049;-74
2021/01/05 10:20:21;;;;;;;34.88;19.25;;;;;;;2.27;84.66;100266.69;5055775;28;20331;-73
2021/01/05 10:22:48;;;;;;;32.10;19.05;;;;;;;2.19;84.26;100260.75;5056630;28;20045;-69
2021/01/05 10:25:15;;;;;;;31.75;19.63;;;;;;;2.12;85.08;100252.13;5054823;28;20053;-79
2021/01/05 10:27:41;;;;;;;32.03;19.55;;;;;;;2.25;84.88;100257.97;5038867;28;20457;-71
2021/01/05 10:30:13;;;;;;;32.17;19.70;;;;;;;2.28;84.54;100262.25;5055446;28;20364;-73
2021/01/05 10:32:42;;;;;;;35.45;20.10;;;;;;;2.32;84.71;100263.94;5055321;28;20056;-74
2021/01/05 10:35:09;;;;;;;32.03;19.25;;;;;;;2.34;84.50;100250.72;5055124;28;20053;-76
2021/01/05 10:37:35;;;;;;;34.70;21.27;;;;;;;2.29;84.94;100251.69;5037354;28;20142;-75
2021/01/05 10:40:06;;;;;;;35.38;21.98;;;;;;;2.35;84.42;100247.19;5054909;28;20079;-74
2021/01/05 10:42:32;;;;;;;33.83;20.10;;;;;;;2.42;84.39;100264.56;5048898;28;20040;-71
2021/01/05 10:44:59;;;;;;;35.25;21.13;;;;;;;2.30;84.43;100257.84;5055163;28;20049;-72
2021/01/05 10:47:25;;;;;;;37.08;21.45;;;;;;;2.29;84.24;100258.75;5054727;28;20045;-72
2021/01/05 10:49:51;;;;;;;36.80;21.35;;;;;;;2.24;84.49;100252.72;5049551;28;20049;-77
2021/01/05 10:52:18;;;;;;;38.20;22.33;;;;;;;2.06;85.00;100227.72;5053462;28;20366;-73
2021/01/05 10:54:44;;;;;;;38.38;21.70;;;;;;;2.23;84.89;100245.72;5053730;28;20045;-73
2021/01/05 10:57:11;;;;;;;34.53;19.60;;;;;;;2.30;84.58;100245.50;5037108;28;20051;-76
2021/01/05 10:59:40;;;;;;;32.63;19.50;;;;;;;2.30;83.98;100245.50;5054740;28;20443;-70
2021/01/05 11:02:09;;;;;;;33.67;20.33;;;;;;;2.34;84.59;100243.66;5054272;28;20049;-70
2021/01/05 11:04:36;;;;;;;33.25;19.83;;;;;;;2.37;84.77;100242.72;5036343;28;20136;-71
2021/01/05 11:07:05;;;;;;;36.10;21.23;;;;;;;2.46;84.06;100242.50;5059810;28;20053;-72
2021/01/05 11:09:33;;;;;;;35.15;20.92;;;;;;;2.48;84.14;100235.41;5056391;28;20053;-71
2021/01/05 11:12:04;;;;;;;35.40;21.08;;;;;;;2.43;83.58;100232.03;5056403;28;20139;-70
2021/01/05 11:14:32;;;;;;;37.95;21.88;;;;;;;2.48;84.05;100237.19;5067062;28;20053;-71
2021/01/05 11:16:59;;;;;;;35.55;22.20;;;;;;;2.41;84.05;100236.50;5052466;28;20061;-74
2021/01/05 11:19:26;;;;;;;34.58;21.08;;;;;;;2.35;84.09;100241.91;5054723;28;20049;-72
2021/01/05 11:21:59;;;;;;;35.55;22.30;;;;;;;2.30;84.07;100234.97;5051378;28;20045;-75
2021/01/05 11:24:27;;;;;;;33.05;20.60;;;;;;;2.38;83.88;100241.81;5054145;28;20139;-76
2021/01/05 11:26:57;;;;;;;35.50;21.73;;;;;;;2.31;83.96;100241.97;5058265;28;20056;-74
2021/01/05 11:29:25;;;;;;;34.53;22.17;;;;;;;2.44;83.75;100236.41;5054139;28;20063;-72
2021/01/05 11:32:03;;;;;;;33.83;21.17;;;;;;;2.36;83.96;100235.72;5059290;28;20045;-75
2021/01/05 11:34:30;;;;;;;39.22;22.45;;;;;;;2.33;84.04;100220.03;5061600;28;20341;-74